Janesville, Wisconsin
Current Conditions -  °F | °C
As of 10:05 AM on Monday 24 Nov 2014 (Local Time) from KJVL Reporting Station
Light Snow Light Snow  
Wind Chill: 27°   Ceiling: 800
Heat Index: 36°   Visibility: 1mi
Dew Point: 34°   Wind: 13mph
Humidity: 93%   Direction: 260°W
Pressure: 29.2"   Gusts: NA
Location:  42.69°N, 89.02°W
Report Text: KJVL 241605Z 26011KT 1SM -SN OVC008 02/01 A2920
Loading
Personal Weather Stations






























Interactive Weather Map New forecast layout! Learn more

10-Day Weather Forecast

Advertisements
Track Severe Weather on mobile